Time;durP1;ratioP1;P1;durP2;ratioP2;P2;SDS_P1;SDS_P2;PMS_P1;PMS_P2;Temp;Humidity;BMP_temperature;BMP_pressure;BME280_temperature;BME280_humidity;BME280_pressure;Samples;Min_cycle;Max_cycle;Signal;HPM_P1;HPM_P2
2020/12/07 00:02:11;;;;;;;127.80;47.03;;;;;;;5.00;100.00;98367.00;4941676;29;20222;-36
2020/12/07 00:04:57;;;;;;;146.07;47.43;;;;;;;4.75;100.00;98364.03;4941491;29;20497;-32
2020/12/07 00:07:43;;;;;;;121.90;47.87;;;;;;;4.82;100.00;98367.31;4941790;29;20288;-32
2020/12/07 00:10:29;;;;;;;119.33;45.43;;;;;;;4.99;100.00;98352.53;4941651;29;20569;-32
2020/12/07 00:13:17;;;;;;;123.00;45.93;;;;;;;5.09;100.00;98348.94;4941513;29;20495;-37
2020/12/07 00:16:08;;;;;;;121.93;46.57;;;;;;;5.13;100.00;98345.44;4941030;29;20206;-36
2020/12/07 00:18:54;;;;;;;114.53;43.40;;;;;;;5.29;100.00;98338.31;4941237;29;20237;-33
2020/12/07 00:21:43;;;;;;;127.80;47.00;;;;;;;4.79;100.00;98334.94;4941150;29;20600;-35
2020/12/07 00:24:28;;;;;;;113.20;46.97;;;;;;;4.60;100.00;98330.97;4940953;29;20297;-35
2020/12/07 00:27:14;;;;;;;115.90;44.80;;;;;;;4.92;100.00;98321.91;4941245;29;20213;-37
2020/12/07 00:30:00;;;;;;;105.33;43.33;;;;;;;5.15;100.00;98312.09;4941314;29;20203;-37
2020/12/07 00:32:46;;;;;;;103.43;43.17;;;;;;;5.15;100.00;98312.94;4940545;29;20343;-32
2020/12/07 00:35:31;;;;;;;109.77;44.50;;;;;;;5.29;100.00;98302.41;4940958;29;20255;-37
2020/12/07 00:38:18;;;;;;;104.20;41.27;;;;;;;5.15;100.00;98318.06;4940804;29;20298;-35
2020/12/07 00:41:03;;;;;;;106.83;44.47;;;;;;;4.72;100.00;98346.16;4941063;29;20206;-33
2020/12/07 00:43:49;;;;;;;91.73;39.27;;;;;;;4.87;100.00;98344.19;4940846;29;20211;-34
2020/12/07 00:46:35;;;;;;;104.77;42.30;;;;;;;4.70;100.00;98339.38;4940984;29;20202;-34
2020/12/07 00:49:22;;;;;;;97.30;42.60;;;;;;;4.58;100.00;98342.13;4940913;29;20205;-36
2020/12/07 00:52:08;;;;;;;90.43;38.43;;;;;;;4.71;100.00;98341.06;4940787;29;20234;-36
2020/12/07 00:54:54;;;;;;;87.40;40.17;;;;;;;4.87;100.00;98332.25;4940294;29;20288;-34
2020/12/07 00:57:40;;;;;;;97.83;43.33;;;;;;;4.71;100.00;98344.47;4940324;29;20210;-34
2020/12/07 01:00:25;;;;;;;102.77;42.33;;;;;;;5.02;100.00;98334.53;4940515;29;20298;-34
2020/12/07 01:03:11;;;;;;;95.93;41.87;;;;;;;4.71;100.00;98341.06;4940664;29;20280;-37
2020/12/07 01:05:57;;;;;;;87.60;41.20;;;;;;;4.66;100.00;98327.47;4940239;29;20484;-32
2020/12/07 01:08:43;;;;;;;88.53;39.63;;;;;;;4.94;100.00;98317.63;4940672;29;20202;-35
2020/12/07 01:11:30;;;;;;;98.07;40.53;;;;;;;5.00;100.00;98318.34;4940057;29;20229;-33
2020/12/07 01:14:21;;;;;;;86.80;40.30;;;;;;;5.21;100.00;98309.41;4940267;29;20206;-34
2020/12/07 01:17:08;;;;;;;95.47;40.33;;;;;;;4.95;100.00;98315.03;4940146;29;20239;-32
2020/12/07 01:19:54;;;;;;;88.93;39.30;;;;;;;4.77;100.00;98303.41;4940259;29;20631;-35
2020/12/07 01:22:40;;;;;;;102.40;42.53;;;;;;;4.83;100.00;98302.41;4940009;29;20205;-35
2020/12/07 01:25:26;;;;;;;89.83;40.57;;;;;;;4.94;100.00;98304.81;4940332;29;20279;-35
2020/12/07 01:28:12;;;;;;;82.60;37.13;;;;;;;5.12;100.00;98312.16;4940207;29;20242;-32
2020/12/07 01:30:58;;;;;;;86.43;39.67;;;;;;;4.89;100.00;98314.28;4940231;29;20300;-34
2020/12/07 01:33:44;;;;;;;78.23;35.23;;;;;;;4.59;100.00;98316.50;4940318;29;20569;-37
2020/12/07 01:36:29;;;;;;;97.57;38.03;;;;;;;4.68;100.00;98306.09;4939916;29;20209;-35
2020/12/07 01:39:16;;;;;;;90.77;38.93;;;;;;;4.72;100.00;98286.41;4940422;29;20206;-33
2020/12/07 01:42:01;;;;;;;97.37;38.23;;;;;;;4.89;100.00;98283.53;4940302;29;20212;-32
2020/12/07 01:44:47;;;;;;;93.00;38.23;;;;;;;4.35;100.00;98288.75;4940039;29;20218;-34
2020/12/07 01:47:34;;;;;;;91.70;37.53;;;;;;;4.40;100.00;98295.47;4939879;29;20213;-35
2020/12/07 01:50:19;;;;;;;85.33;35.93;;;;;;;4.53;100.00;98285.03;4940040;29;20209;-34
2020/12/07 01:53:05;;;;;;;88.70;39.00;;;;;;;4.36;100.00;98286.16;4939968;29;20261;-33
2020/12/07 01:55:53;;;;;;;98.00;39.50;;;;;;;4.72;100.00;98287.25;4939668;29;20201;-33
2020/12/07 01:58:40;;;;;;;89.83;38.00;;;;;;;4.56;100.00;98297.78;4939836;29;20208;-33
2020/12/07 02:01:28;;;;;;;96.17;37.40;;;;;;;4.34;100.00;98298.13;4939695;29;20197;-38
2020/12/07 02:04:14;;;;;;;89.20;36.07;;;;;;;4.52;100.00;98297.00;4939545;29;20310;-37
2020/12/07 02:06:59;;;;;;;83.00;34.57;;;;;;;4.14;100.00;98297.59;4939864;29;20288;-33
2020/12/07 02:09:45;;;;;;;93.77;35.73;;;;;;;4.60;100.00;98286.59;4939731;29;20230;-34
2020/12/07 02:12:30;;;;;;;97.93;35.23;;;;;;;4.53;100.00;98280.75;4939550;29;20511;-34
2020/12/07 02:15:17;;;;;;;99.30;37.60;;;;;;;4.66;100.00;98278.81;4939847;29;20286;-36
2020/12/07 02:18:04;;;;;;;94.23;36.93;;;;;;;4.52;100.00;98280.78;4940107;29;20202;-32
2020/12/07 02:20:51;;;;;;;89.90;36.07;;;;;;;4.27;100.00;98288.84;4939750;29;20606;-34
2020/12/07 02:23:37;;;;;;;89.10;35.20;;;;;;;4.46;100.00;98276.59;4939775;29;20209;-36
2020/12/07 02:26:22;;;;;;;85.47;35.03;;;;;;;4.16;100.00;98270.28;4939515;29;20353;-33
2020/12/07 02:29:08;;;;;;;90.53;35.13;;;;;;;4.55;100.00;98262.81;4939715;29;20265;-32
2020/12/07 02:32:00;;;;;;;89.13;35.37;;;;;;;4.77;100.00;98261.56;4939219;29;20244;-34
2020/12/07 02:34:46;;;;;;;84.17;35.73;;;;;;;4.14;100.00;98259.22;4939548;29;20196;-33
2020/12/07 02:37:32;;;;;;;97.20;37.10;;;;;;;4.28;100.00;98267.53;4939785;29;20305;-35
2020/12/07 02:40:18;;;;;;;83.27;35.33;;;;;;;4.55;100.00;98258.53;4943404;29;20669;-35
2020/12/07 02:43:03;;;;;;;78.30;33.43;;;;;;;4.34;100.00;98261.47;4943291;29;20212;-35
2020/12/07 02:45:49;;;;;;;94.70;36.13;;;;;;;4.53;100.00;98256.88;4943429;29;20348;-32
2020/12/07 02:48:35;;;;;;;65.03;29.50;;;;;;;4.18;100.00;98260.88;4942610;29;20298;-36
2020/12/07 02:51:21;;;;;;;75.03;31.60;;;;;;;4.17;100.00;98261.75;4942973;29;20281;-35
2020/12/07 02:54:07;;;;;;;60.97;28.30;;;;;;;4.17;100.00;98259.19;4942705;29;20616;-36
2020/12/07 02:56:53;;;;;;;58.23;25.30;;;;;;;3.89;100.00;98250.22;4943048;29;20437;-35
2020/12/07 02:59:38;;;;;;;59.30;24.70;;;;;;;4.18;100.00;98250.63;4943052;29;20728;-33
2020/12/07 03:02:24;;;;;;;59.73;25.63;;;;;;;4.16;100.00;98254.94;4943012;29;20201;-37
2020/12/07 03:05:10;;;;;;;44.63;21.93;;;;;;;3.89;100.00;98257.91;4943025;29;20253;-33
2020/12/07 03:07:55;;;;;;;47.13;22.27;;;;;;;4.07;100.00;98258.47;4942722;29;20611;-34
2020/12/07 03:10:42;;;;;;;38.87;19.10;;;;;;;4.08;100.00;98260.16;4942925;29;20200;-34
2020/12/07 03:13:29;;;;;;;41.80;19.67;;;;;;;4.01;100.00;98261.09;4942745;29;20299;-38
2020/12/07 03:16:15;;;;;;;43.37;19.90;;;;;;;3.90;100.00;98257.88;4942488;29;20204;-35
2020/12/07 03:19:01;;;;;;;46.33;20.37;;;;;;;4.11;100.00;98249.88;4942815;29;20208;-33
2020/12/07 03:21:46;;;;;;;50.80;22.63;;;;;;;4.16;100.00;98257.50;4942253;29;20611;-34
2020/12/07 03:24:32;;;;;;;38.27;20.00;;;;;;;4.02;100.00;98265.34;4942142;29;20209;-38
2020/12/07 03:27:19;;;;;;;33.73;17.77;;;;;;;3.92;100.00;98258.69;4942072;29;20275;-34
2020/12/07 03:30:04;;;;;;;38.70;19.93;;;;;;;4.23;100.00;98248.81;4942299;29;20264;-37
2020/12/07 03:32:50;;;;;;;41.57;20.03;;;;;;;4.34;100.00;98241.84;4942085;29;20244;-35
2020/12/07 03:35:35;;;;;;;34.37;18.67;;;;;;;3.90;100.00;98246.81;4941990;29;20280;-34
2020/12/07 03:38:21;;;;;;;38.40;18.30;;;;;;;3.93;100.00;98249.31;4941769;29;20612;-36
2020/12/07 03:41:07;;;;;;;27.90;16.70;;;;;;;3.83;100.00;98240.94;4941927;29;20293;-33
2020/12/07 03:43:53;;;;;;;29.57;18.13;;;;;;;3.89;100.00;98242.56;4942108;29;20197;-32
2020/12/07 03:46:39;;;;;;;28.50;16.03;;;;;;;4.24;100.00;98245.41;4941765;29;20353;-33
2020/12/07 03:49:25;;;;;;;24.70;15.30;;;;;;;3.79;100.00;98237.59;4941134;29;20305;-32
2020/12/07 03:52:10;;;;;;;23.13;14.80;;;;;;;3.75;100.00;98235.94;4941343;29;20243;-35
2020/12/07 03:54:57;;;;;;;24.70;15.50;;;;;;;3.94;100.00;98240.78;4942026;29;20240;-34
2020/12/07 03:57:42;;;;;;;23.03;13.83;;;;;;;3.83;100.00;98240.94;4941567;29;20206;-34
2020/12/07 04:00:29;;;;;;;22.63;14.43;;;;;;;4.00;100.00;98246.63;4939934;29;20685;-32
2020/12/07 04:03:16;;;;;;;30.10;15.40;;;;;;;4.50;100.00;98238.13;4941837;29;20213;-32
2020/12/07 04:06:06;;;;;;;22.83;13.73;;;;;;;3.92;100.00;98237.41;4941640;29;20211;-33
2020/12/07 04:08:51;;;;;;;19.97;14.17;;;;;;;4.07;100.00;98238.00;4941102;29;20280;-34
2020/12/07 04:11:37;;;;;;;21.97;13.77;;;;;;;3.87;100.00;98240.00;4941527;29;20732;-33
2020/12/07 04:14:23;;;;;;;21.43;13.67;;;;;;;3.89;100.00;98247.66;4941772;29;20206;-33
2020/12/07 04:17:09;;;;;;;25.77;14.70;;;;;;;4.26;100.00;98248.78;4941405;29;20220;-34
2020/12/07 04:19:55;;;;;;;22.47;14.07;;;;;;;3.91;100.00;98245.94;4941636;29;20220;-35
2020/12/07 04:22:41;;;;;;;22.07;13.83;;;;;;;4.01;100.00;98242.34;4941108;29;20225;-31
2020/12/07 04:25:26;;;;;;;18.37;12.30;;;;;;;3.74;100.00;98241.06;4941491;29;20482;-35
2020/12/07 04:28:12;;;;;;;22.50;14.27;;;;;;;3.85;100.00;98243.47;4940981;29;20667;-34
2020/12/07 04:30:58;;;;;;;25.87;16.60;;;;;;;3.89;100.00;98245.13;4941582;29;20260;-37
2020/12/07 04:33:44;;;;;;;21.43;14.33;;;;;;;3.67;100.00;98242.03;4940417;29;20240;-32
2020/12/07 04:36:30;;;;;;;23.20;14.10;;;;;;;3.44;100.00;98255.09;4941191;29;20208;-34
2020/12/07 04:39:17;;;;;;;24.53;14.93;;;;;;;3.67;100.00;98254.81;4941263;29;20209;-32
2020/12/07 04:42:03;;;;;;;25.57;15.40;;;;;;;3.64;100.00;98265.91;4940985;29;20295;-34
2020/12/07 04:44:48;;;;;;;21.00;14.23;;;;;;;3.33;100.00;98259.53;4940989;29;20352;-33
2020/12/07 04:47:34;;;;;;;23.53;15.53;;;;;;;3.61;100.00;98257.44;4940556;29;20270;-33
2020/12/07 04:50:21;;;;;;;16.43;11.73;;;;;;;3.37;100.00;98246.69;4940541;29;20662;-35
2020/12/07 04:53:06;;;;;;;22.67;13.57;;;;;;;3.50;100.00;98241.41;4940536;29;20319;-32
2020/12/07 04:55:52;;;;;;;22.10;14.00;;;;;;;3.43;100.00;98235.53;4940945;29;20196;-35
2020/12/07 04:58:38;;;;;;;24.73;14.63;;;;;;;3.66;100.00;98233.50;4940602;29;20210;-34
2020/12/07 05:01:24;;;;;;;18.00;12.60;;;;;;;3.46;100.00;98235.50;4940154;29;20200;-34
2020/12/07 05:04:10;;;;;;;20.53;14.53;;;;;;;3.53;100.00;98224.31;4940376;29;20229;-33
2020/12/07 05:07:01;;;;;;;20.57;14.33;;;;;;;3.62;100.00;98219.06;4940100;29;20268;-35
2020/12/07 05:09:47;;;;;;;19.63;12.90;;;;;;;3.20;100.00;98232.44;4940554;29;20204;-34
2020/12/07 05:12:38;;;;;;;16.87;12.83;;;;;;;3.44;100.00;98232.94;4940182;29;20562;-33
2020/12/07 05:15:24;;;;;;;19.07;13.70;;;;;;;3.41;100.00;98232.97;4940019;29;20720;-32
2020/12/07 05:18:10;;;;;;;23.17;14.13;;;;;;;3.44;100.00;98234.66;4929802;29;20221;-34
2020/12/07 05:20:55;;;;;;;20.60;14.20;;;;;;;3.52;100.00;98232.00;4921413;29;20204;-34
2020/12/07 05:23:43;;;;;;;22.70;14.97;;;;;;;3.54;100.00;98241.34;4921575;29;20206;-32
2020/12/07 05:26:29;;;;;;;19.50;14.10;;;;;;;3.44;100.00;98250.00;4920909;29;20201;-34
2020/12/07 05:29:29;;;;;;;21.73;14.40;;;;;;;3.53;100.00;98262.66;4921425;29;20264;-38
2020/12/07 05:32:16;;;;;;;16.73;11.80;;;;;;;3.42;100.00;98265.34;4921082;29;20240;-34
2020/12/07 05:35:03;;;;;;;22.23;13.27;;;;;;;3.54;100.00;98258.41;4921051;29;20201;-34
2020/12/07 05:37:49;;;;;;;14.53;11.23;;;;;;;3.30;100.00;98254.44;4920994;29;20460;-32
2020/12/07 05:40:36;;;;;;;18.43;11.57;;;;;;;3.42;100.00;98262.78;4920737;29;20486;-31
2020/12/07 05:43:22;;;;;;;15.53;11.70;;;;;;;3.32;100.00;98268.91;4930074;29;20196;-32
2020/12/07 05:46:12;;;;;;;16.90;11.47;;;;;;;3.26;100.00;98286.84;4939940;29;20261;-33
2020/12/07 05:49:01;;;;;;;16.40;11.70;;;;;;;3.42;100.00;98277.28;4939744;29;20723;-33
2020/12/07 05:51:57;;;;;;;16.63;11.23;;;;;;;3.51;100.00;98271.22;4938891;29;20201;-34
2020/12/07 05:54:42;;;;;;;18.30;12.77;;;;;;;3.36;100.00;98277.38;4939693;29;20201;-31
2020/12/07 05:57:31;;;;;;;17.97;13.00;;;;;;;3.54;100.00;98277.13;4939520;29;20615;-33
2020/12/07 06:00:21;;;;;;;15.67;10.73;;;;;;;3.27;100.00;98267.25;4939254;29;20260;-32
2020/12/07 06:03:07;;;;;;;17.43;12.10;;;;;;;3.57;100.00;98259.22;4939172;29;20292;-33
2020/12/07 06:05:52;;;;;;;18.40;13.17;;;;;;;3.47;100.00;98244.84;4939173;29;20240;-32
2020/12/07 06:08:40;;;;;;;18.00;12.97;;;;;;;3.58;100.00;98232.78;4939115;29;20208;-33
2020/12/07 06:11:27;;;;;;;18.63;13.90;;;;;;;3.62;100.00;98218.22;4939427;29;20206;-32
2020/12/07 06:14:14;;;;;;;18.87;13.33;;;;;;;3.55;100.00;98211.53;4942203;29;20394;-35
2020/12/07 06:17:00;;;;;;;16.87;12.03;;;;;;;3.49;100.00;98232.06;4942598;29;20742;-33
2020/12/07 06:19:50;;;;;;;21.17;14.47;;;;;;;3.53;100.00;98244.78;4943044;29;20606;-34
2020/12/07 06:22:37;;;;;;;20.57;13.10;;;;;;;3.53;100.00;98252.44;4942795;29;20205;-35
2020/12/07 06:25:26;;;;;;;19.90;14.10;;;;;;;3.61;100.00;98257.44;4942717;29;20612;-35
2020/12/07 06:28:12;;;;;;;22.23;15.10;;;;;;;3.72;100.00;98264.09;4942070;29;20210;-33
2020/12/07 06:31:08;;;;;;;27.17;16.87;;;;;;;3.75;100.00;98258.94;4942740;29;20209;-34
2020/12/07 06:33:54;;;;;;;25.97;15.20;;;;;;;3.55;100.00;98253.28;4941492;29;20244;-35
2020/12/07 06:36:40;;;;;;;23.83;15.43;;;;;;;3.64;100.00;98254.84;4942125;29;20208;-33
2020/12/07 06:39:26;;;;;;;25.07;16.27;;;;;;;3.59;100.00;98246.41;4942529;29;20487;-33
2020/12/07 06:42:12;;;;;;;27.83;18.07;;;;;;;3.90;100.00;98244.25;4941918;29;20206;-31
2020/12/07 06:44:58;;;;;;;27.13;19.40;;;;;;;3.87;100.00;98241.72;4932626;29;20891;-32
2020/12/07 06:47:44;;;;;;;43.13;26.83;;;;;;;3.97;100.00;98244.16;4923265;29;20203;-34
2020/12/07 06:50:31;;;;;;;31.80;21.97;;;;;;;3.77;100.00;98249.56;4923080;29;20602;-32
2020/12/07 06:53:38;;;;;;;29.53;20.13;;;;;;;3.81;100.00;98251.16;4922713;29;20649;-33
2020/12/07 06:56:24;;;;;;;52.20;30.70;;;;;;;3.75;100.00;98263.22;4922686;29;20210;-34
2020/12/07 06:59:10;;;;;;;34.37;19.20;;;;;;;3.74;100.00;98257.25;4940343;29;20225;-33
2020/12/07 07:01:56;;;;;;;38.80;28.50;;;;;;;3.98;100.00;98268.00;4942622;29;20476;-35
2020/12/07 07:04:51;;;;;;;33.33;21.00;;;;;;;4.00;100.00;98261.97;4942300;29;20210;-34
2020/12/07 07:07:36;;;;;;;40.80;23.50;;;;;;;3.97;100.00;98272.28;4942119;29;20205;-32
2020/12/07 07:10:23;;;;;;;37.53;22.30;;;;;;;4.06;100.00;98273.84;4942174;29;20277;-35
2020/12/07 07:13:09;;;;;;;33.93;21.90;;;;;;;3.88;100.00;98276.66;4941764;29;20293;-33
2020/12/07 07:15:55;;;;;;;36.97;22.63;;;;;;;4.10;100.00;98278.88;4942097;29;20257;-32
2020/12/07 07:18:41;;;;;;;40.10;24.50;;;;;;;4.01;100.00;98273.91;4942206;29;20347;-33
2020/12/07 07:21:28;;;;;;;45.57;24.13;;;;;;;4.00;100.00;98267.09;4940141;29;20277;-35
2020/12/07 07:24:13;;;;;;;45.20;24.23;;;;;;;3.99;100.00;98255.19;4922088;29;20208;-36
2020/12/07 07:27:57;;;;;;;45.23;24.97;;;;;;;4.19;100.00;98262.56;4922913;29;20494;-32
2020/12/07 07:30:17;;;;;;;56.60;30.23;;;;;;;4.09;100.00;98258.44;4922435;29;20213;-32
2020/12/07 07:33:03;;;;;;;54.37;28.20;;;;;;;4.32;100.00;98255.53;4922242;29;20729;-32
2020/12/07 07:35:48;;;;;;;68.73;34.53;;;;;;;4.08;100.00;98262.72;4922600;29;20199;-33
2020/12/07 07:38:35;;;;;;;57.27;31.03;;;;;;;4.14;100.00;98279.69;4925718;29;20491;-35
2020/12/07 07:41:25;;;;;;;55.97;31.17;;;;;;;4.36;100.00;98282.75;4941932;29;20357;-32
2020/12/07 07:44:14;;;;;;;69.60;32.77;;;;;;;4.39;100.00;98288.69;4941852;29;20217;-35
2020/12/07 07:47:04;;;;;;;65.40;33.67;;;;;;;4.45;100.00;98290.28;4941282;29;20209;-33
2020/12/07 07:50:19;;;;;;;64.67;35.13;;;;;;;4.26;100.00;98279.50;4941219;29;20207;-36
2020/12/07 08:12:53;;;;;;;74.30;37.03;;;;;;;4.58;100.00;98296.91;5155615;27;20661;-35
2020/12/07 08:15:48;;;;;;;82.33;39.60;;;;;;;4.62;100.00;98310.47;5154970;27;20255;-37
2020/12/07 08:18:42;;;;;;;84.57;38.20;;;;;;;4.48;100.00;98309.00;5155780;27;20599;-35
2020/12/07 08:21:31;;;;;;;81.70;37.70;;;;;;;4.53;100.00;98308.06;5155118;27;20341;-35
2020/12/07 08:24:21;;;;;;;76.23;36.50;;;;;;;4.42;100.00;98318.47;5155610;27;20697;-32
2020/12/07 08:27:12;;;;;;;81.47;37.70;;;;;;;4.48;100.00;98319.22;5155444;27;20244;-31
2020/12/07 08:30:00;;;;;;;77.67;38.03;;;;;;;4.46;100.00;98320.13;5154812;27;20320;-33
2020/12/07 08:32:45;;;;;;;70.37;35.10;;;;;;;4.52;100.00;98321.75;5155296;27;20198;-31
2020/12/07 08:35:31;;;;;;;74.23;35.07;;;;;;;4.53;100.00;98328.56;5155443;27;20199;-36
2020/12/07 08:38:24;;;;;;;77.17;37.33;;;;;;;4.68;100.00;98331.72;5154556;27;20193;-32
2020/12/07 08:41:14;;;;;;;64.93;34.23;;;;;;;4.58;100.00;98329.34;5154331;27;20202;-32
2020/12/07 08:44:02;;;;;;;63.63;33.27;;;;;;;4.69;100.00;98347.91;5154924;27;20296;-31
2020/12/07 08:46:47;;;;;;;61.70;32.33;;;;;;;4.46;100.00;98349.13;5154357;27;20203;-37
2020/12/07 08:49:33;;;;;;;61.43;34.57;;;;;;;4.56;100.00;98364.34;5154826;27;20198;-35
2020/12/07 08:52:18;;;;;;;60.90;34.73;;;;;;;4.50;100.00;98355.91;5154800;27;20195;-34
2020/12/07 08:55:05;;;;;;;56.23;33.63;;;;;;;4.52;100.00;98383.19;5154866;27;20285;-31
2020/12/07 08:57:52;;;;;;;53.90;32.43;;;;;;;4.67;100.00;98377.81;5153789;27;20200;-32
2020/12/07 09:00:38;;;;;;;43.80;27.03;;;;;;;4.37;100.00;98379.16;5154805;27;20209;-31
2020/12/07 09:03:23;;;;;;;50.33;30.50;;;;;;;4.60;100.00;98383.91;5154542;27;20298;-34
2020/12/07 09:06:11;;;;;;;46.80;29.30;;;;;;;4.62;100.00;98380.44;5153843;27;20251;-35
2020/12/07 09:08:57;;;;;;;46.33;29.27;;;;;;;4.44;100.00;98396.09;5153754;27;20243;-33
2020/12/07 09:11:42;;;;;;;43.93;27.17;;;;;;;4.48;100.00;98397.75;5154362;27;20200;-32
2020/12/07 09:14:29;;;;;;;48.37;30.20;;;;;;;4.55;100.00;98390.81;5153536;27;20193;-32
2020/12/07 09:17:14;;;;;;;50.10;31.23;;;;;;;4.78;100.00;98389.59;5153971;27;20190;-34
2020/12/07 09:20:00;;;;;;;51.20;32.63;;;;;;;4.59;100.00;98380.53;5142300;27;20194;-33
2020/12/07 09:22:46;;;;;;;51.73;32.77;;;;;;;4.80;100.00;98389.56;5140206;27;20232;-33
2020/12/07 09:25:31;;;;;;;52.57;32.40;;;;;;;4.55;100.00;98389.13;5139663;27;20209;-36
2020/12/07 09:28:17;;;;;;;51.77;34.80;;;;;;;4.59;100.00;98395.88;5139870;27;20227;-32
2020/12/07 09:31:04;;;;;;;49.40;32.67;;;;;;;4.73;100.00;98395.66;5140059;27;20267;-31
2020/12/07 09:33:49;;;;;;;56.10;34.10;;;;;;;4.65;100.00;98392.38;5139819;27;20611;-33
2020/12/07 09:36:35;;;;;;;59.03;35.73;;;;;;;4.78;100.00;98388.75;5139826;27;20594;-32
2020/12/07 09:39:20;;;;;;;58.17;36.47;;;;;;;4.81;100.00;98396.38;5140190;27;20595;-32
2020/12/07 09:42:06;;;;;;;56.40;35.30;;;;;;;4.67;100.00;98404.28;5140149;27;20195;-33
2020/12/07 09:44:51;;;;;;;59.93;39.50;;;;;;;4.54;100.00;98418.13;5140151;27;20292;-32
2020/12/07 09:47:38;;;;;;;63.00;38.73;;;;;;;4.81;100.00;98411.72;5140118;27;20657;-33
2020/12/07 09:50:24;;;;;;;52.07;34.13;;;;;;;4.65;100.00;98426.50;5140178;27;20192;-32
2020/12/07 09:53:11;;;;;;;60.17;35.87;;;;;;;4.85;100.00;98431.31;5140119;27;20612;-34
2020/12/07 09:55:57;;;;;;;56.27;35.60;;;;;;;4.87;100.00;98442.38;5139955;27;20478;-31
2020/12/07 09:58:43;;;;;;;55.67;35.87;;;;;;;4.75;100.00;98445.16;5139767;27;20245;-31
2020/12/07 10:01:29;;;;;;;55.83;36.60;;;;;;;4.88;100.00;98443.22;5140317;27;20196;-34
2020/12/07 10:04:16;;;;;;;52.07;32.70;;;;;;;4.78;100.00;98457.91;5139835;27;20259;-31
2020/12/07 10:07:02;;;;;;;48.53;34.23;;;;;;;4.71;100.00;98457.16;5138992;27;20232;-32
2020/12/07 10:09:54;;;;;;;49.30;32.40;;;;;;;4.68;100.00;98471.69;5134324;27;20260;-34
2020/12/07 10:12:45;;;;;;;43.77;29.60;;;;;;;4.72;100.00;98469.09;5118796;28;20216;-31
2020/12/07 10:15:33;;;;;;;37.03;25.70;;;;;;;4.60;100.00;98468.38;5137822;27;20232;-31
2020/12/07 10:18:19;;;;;;;37.23;26.70;;;;;;;4.69;100.00;98471.69;5139415;27;20661;-33
2020/12/07 10:21:08;;;;;;;35.93;26.03;;;;;;;4.69;100.00;98468.28;5139120;27;20243;-33
2020/12/07 10:23:54;;;;;;;37.77;27.50;;;;;;;4.56;100.00;98465.06;5138602;27;20200;-32
2020/12/07 10:26:42;;;;;;;33.70;24.30;;;;;;;4.73;100.00;98454.56;5138459;27;20196;-33
2020/12/07 10:29:28;;;;;;;36.80;25.33;;;;;;;4.64;100.00;98449.56;5138800;27;20205;-34
2020/12/07 10:32:14;;;;;;;35.87;25.00;;;;;;;4.59;100.00;98453.94;5137984;27;20234;-35
2020/12/07 10:35:01;;;;;;;30.93;22.40;;;;;;;4.75;100.00;98455.38;5138340;27;20200;-35
2020/12/07 10:37:47;;;;;;;33.97;23.60;;;;;;;4.80;100.00;98462.13;5138490;27;20424;-35
2020/12/07 10:40:33;;;;;;;34.27;23.70;;;;;;;4.88;100.00;98469.69;5138037;27;20192;-34
2020/12/07 10:43:18;;;;;;;32.97;24.53;;;;;;;4.54;100.00;98469.34;5137959;27;20655;-31
2020/12/07 10:46:05;;;;;;;31.73;22.93;;;;;;;4.61;100.00;98468.38;5138194;27;20203;-36
2020/12/07 10:48:51;;;;;;;32.87;23.63;;;;;;;4.53;100.00;98475.34;5137808;27;20365;-31
2020/12/07 10:51:36;;;;;;;32.00;21.87;;;;;;;4.64;100.00;98482.84;5137761;27;20483;-31
2020/12/07 10:54:23;;;;;;;28.30;20.23;;;;;;;4.58;100.00;98485.50;5138151;27;20602;-35
2020/12/07 10:57:09;;;;;;;26.57;19.77;;;;;;;4.58;100.00;98480.41;5136584;27;20588;-32
2020/12/07 10:59:55;;;;;;;25.73;18.20;;;;;;;4.47;100.00;98483.09;5137557;27;20204;-32
2020/12/07 11:02:40;;;;;;;26.63;18.20;;;;;;;4.39;100.00;98475.53;5137509;27;20202;-34
2020/12/07 11:05:26;;;;;;;29.90;20.67;;;;;;;4.75;100.00;98478.44;5137168;27;20491;-38
2020/12/07 11:08:18;;;;;;;26.53;20.30;;;;;;;4.66;100.00;98489.66;5137597;27;20246;-35
2020/12/07 11:11:07;;;;;;;28.57;20.20;;;;;;;4.87;100.00;98503.00;5137672;27;20197;-32
2020/12/07 11:13:53;;;;;;;26.63;19.60;;;;;;;4.48;100.00;98506.09;5138144;27;20196;-33
2020/12/07 11:16:39;;;;;;;25.83;19.20;;;;;;;4.44;100.00;98501.03;5137714;27;20200;-32
2020/12/07 11:19:24;;;;;;;25.13;19.33;;;;;;;4.54;100.00;98499.22;5137718;27;20193;-32
2020/12/07 11:22:11;;;;;;;23.90;17.03;;;;;;;4.53;100.00;98492.41;5136747;27;20530;-31
2020/12/07 11:24:56;;;;;;;24.90;18.73;;;;;;;4.55;100.00;98496.66;5137427;27;20202;-33
2020/12/07 11:27:55;;;;;;;24.70;19.40;;;;;;;4.52;100.00;98506.91;5137739;27;20297;-35
2020/12/07 11:30:41;;;;;;;22.17;17.33;;;;;;;4.52;100.00;98506.91;5137620;27;20204;-33
2020/12/07 11:33:27;;;;;;;24.57;17.97;;;;;;;4.50;100.00;98501.81;5137586;27;20204;-33
2020/12/07 11:36:28;;;;;;;27.23;19.17;;;;;;;4.64;100.00;98516.97;5137020;27;20194;-33
2020/12/07 11:39:33;;;;;;;23.63;18.30;;;;;;;4.52;100.00;98516.31;5137216;27;20253;-33
2020/12/07 11:42:37;;;;;;;26.03;18.50;;;;;;;4.48;100.00;98526.59;5136758;27;20200;-31
2020/12/07 11:45:24;;;;;;;26.63;18.40;;;;;;;4.63;100.00;98529.81;5137379;27;20297;-31
2020/12/07 11:48:10;;;;;;;22.97;16.30;;;;;;;4.47;100.00;98535.13;5137069;27;20225;-31
2020/12/07 11:50:56;;;;;;;22.80;17.03;;;;;;;4.72;100.00;98537.38;5137553;27;20200;-32
2020/12/07 11:53:45;;;;;;;20.93;15.47;;;;;;;4.74;100.00;98543.34;5136946;27;20200;-31
2020/12/07 11:56:32;;;;;;;23.43;16.40;;;;;;;4.67;100.00;98531.47;5137407;27;20465;-34
2020/12/07 11:59:20;;;;;;;26.07;17.37;;;;;;;4.61;100.00;98532.38;5137500;27;20256;-32
2020/12/07 12:02:07;;;;;;;21.80;16.07;;;;;;;4.57;100.00;98529.91;5136691;27;20359;-31
2020/12/07 12:04:55;;;;;;;20.30;15.40;;;;;;;4.65;100.00;98539.16;5136951;27;20202;-36
2020/12/07 12:07:41;;;;;;;22.57;16.10;;;;;;;4.81;100.00;98538.09;5136597;28;20233;-31
2020/12/07 12:10:29;;;;;;;22.63;15.83;;;;;;;4.52;100.00;98550.44;5137519;28;20298;-37
2020/12/07 12:13:14;;;;;;;23.83;16.70;;;;;;;4.63;100.00;98550.28;5137159;28;20417;-35
2020/12/07 12:16:00;;;;;;;25.07;16.77;;;;;;;4.69;100.00;98558.75;5119983;28;20207;-34
2020/12/07 12:18:47;;;;;;;20.57;14.80;;;;;;;4.44;100.00;98558.19;5123620;28;20207;-34
2020/12/07 12:21:32;;;;;;;24.07;17.77;;;;;;;4.72;100.00;98557.88;5136997;28;20257;-33
2020/12/07 12:24:19;;;;;;;24.83;16.40;;;;;;;4.70;100.00;98569.84;5143681;27;20200;-36
2020/12/07 12:27:04;;;;;;;24.97;17.20;;;;;;;4.82;100.00;98570.53;5157917;27;20283;-36
2020/12/07 12:29:50;;;;;;;25.43;17.90;;;;;;;4.69;100.00;98573.28;5157725;27;20287;-33
2020/12/07 12:32:36;;;;;;;24.77;17.83;;;;;;;4.77;100.00;98577.44;5158159;27;20472;-32
2020/12/07 12:35:23;;;;;;;27.50;18.50;;;;;;;4.86;100.00;98573.91;5158031;27;20476;-35
2020/12/07 12:38:08;;;;;;;25.33;17.70;;;;;;;4.65;100.00;98569.03;5156941;27;20225;-33
2020/12/07 12:40:55;;;;;;;27.73;18.30;;;;;;;4.79;100.00;98570.59;5157593;27;20199;-33
2020/12/07 12:43:41;;;;;;;26.63;18.93;;;;;;;4.94;100.00;98582.34;5157698;27;20658;-34
2020/12/07 12:46:29;;;;;;;26.83;19.67;;;;;;;4.92;100.00;98578.94;5157707;27;20597;-36
2020/12/07 12:49:15;;;;;;;27.87;18.53;;;;;;;4.91;100.00;98582.38;5157225;27;20669;-33
2020/12/07 12:52:01;;;;;;;29.37;20.33;;;;;;;5.03;100.00;98576.22;5157598;27;20200;-35
2020/12/07 12:54:47;;;;;;;29.57;20.43;;;;;;;5.04;100.00;98573.63;5159786;27;20303;-34
2020/12/07 12:57:33;;;;;;;32.77;20.60;;;;;;;5.08;100.00;98574.44;5161116;27;20203;-35
2020/12/07 13:00:19;;;;;;;28.10;19.63;;;;;;;4.96;100.00;98564.38;5161215;27;20238;-37
2020/12/07 13:03:04;;;;;;;27.80;19.67;;;;;;;5.14;100.00;98574.38;5161218;27;20476;-37
2020/12/07 13:05:52;;;;;;;27.67;18.53;;;;;;;4.92;100.00;98567.84;5161307;27;20606;-36
2020/12/07 13:08:39;;;;;;;26.17;18.73;;;;;;;5.13;100.00;98573.53;5161197;27;20236;-36